Hillside, Pennsylvania
Current Conditions -  °F | °C
As of 10:58 AM on Thursday 30 Oct 2014 (Local Time) from KMUI Reporting Station
Scattered Clouds Scattered Clouds  
Wind Chill: 55°   Ceiling: Unl
Heat Index: 55°   Visibility: 10mi
Dew Point: 37°   Wind: 3mph
Humidity: 51%   Direction: NA
Pressure: 30.06"   Gusts: NA
Location:  40.6882°N, 76.264°W
Report Text: KMUI 301458Z VRB03KT 10SM SCT040 13/03 A3006 RMK AO2A SLPNO WND DATA ESTMD ALSTG ESTMD $
Loading
Personal Weather Stations






























Interactive Weather Map
Tropical Storm Tracking
New forecast layout! Learn more

10-Day Weather Forecast

Advertisements
Track Severe Weather on mobile